Time;durP1;ratioP1;P1;durP2;ratioP2;P2;SDS_P1;SDS_P2;PMS_P1;PMS_P2;Temp;Humidity;BMP_temperature;BMP_pressure;BME280_temperature;BME280_humidity;BME280_pressure;Samples;Min_cycle;Max_cycle;Signal;HPM_P1;HPM_P2
2022/05/02 00:01:19;;;;;;;;;;;14.60;56.30;;;;;;5050810;28;83169;-49
2022/05/02 00:03:44;;;;;;;;;;;14.50;56.30;;;;;;5050869;28;83587;-49
2022/05/02 00:06:10;;;;;;;;;;;14.50;56.30;;;;;;5053887;28;81837;-48
2022/05/02 00:08:36;;;;;;;;;;;14.50;56.30;;;;;;5050996;28;83313;-49
2022/05/02 00:11:01;;;;;;;;;;;14.50;56.20;;;;;;5051119;28;81904;-49
2022/05/02 00:13:27;;;;;;;;;;;14.50;56.30;;;;;;5051065;28;82905;-48
2022/05/02 00:15:53;;;;;;;;;;;14.50;56.30;;;;;;5051230;28;82542;-49
2022/05/02 00:18:19;;;;;;;;;;;14.50;56.40;;;;;;5051045;28;81987;-49
2022/05/02 00:20:44;;;;;;;;;;;14.40;56.30;;;;;;5050928;28;82882;-50
2022/05/02 00:23:10;;;;;;;;;;;14.50;56.40;;;;;;5050114;28;84511;-49
2022/05/02 00:25:36;;;;;;;;;;;14.40;56.40;;;;;;5050839;28;82069;-48
2022/05/02 00:28:03;;;;;;;;;;;14.40;56.30;;;;;;5052838;27;81924;-48
2022/05/02 00:30:29;;;;;;;;;;;14.40;56.40;;;;;;5050536;28;81824;-48
2022/05/02 00:32:56;;;;;;;;;;;14.40;56.50;;;;;;5050540;28;81935;-48
2022/05/02 00:35:22;;;;;;;;;;;14.40;56.50;;;;;;5050708;28;82264;-48
2022/05/02 00:37:48;;;;;;;;;;;14.40;56.50;;;;;;5050824;28;81716;-48
2022/05/02 00:40:15;;;;;;;;;;;14.40;56.40;;;;;;5051078;28;82992;-49
2022/05/02 00:42:45;;;;;;;;;;;14.40;56.50;;;;;;5050457;28;83647;-49
2022/05/02 00:45:11;;;;;;;;;;;14.40;56.60;;;;;;5050349;28;81759;-49
2022/05/02 00:47:37;;;;;;;;;;;14.40;56.50;;;;;;5052647;28;82842;-48
2022/05/02 00:50:04;;;;;;;;;;;14.40;56.60;;;;;;5050441;28;81839;-48
2022/05/02 00:52:29;;;;;;;;;;;14.30;56.60;;;;;;5050469;28;83186;-48
2022/05/02 00:54:55;;;;;;;;;;;14.30;56.60;;;;;;5050170;28;83214;-49
2022/05/02 00:57:22;;;;;;;;;;;14.30;56.60;;;;;;5050422;28;81887;-49
2022/05/02 00:59:47;;;;;;;;;;;14.30;56.60;;;;;;5050407;28;82709;-49
2022/05/02 01:02:14;;;;;;;;;;;14.30;56.60;;;;;;5050365;28;82619;-49
2022/05/02 01:04:40;;;;;;;;;;;14.30;56.60;;;;;;5050616;28;81151;-48
2022/05/02 01:07:09;;;;;;;;;;;14.30;56.60;;;;;;5050363;28;82363;-49
2022/05/02 01:09:42;;;;;;;;;;;14.30;56.60;;;;;;5052716;28;82637;-49
2022/05/02 01:12:08;;;;;;;;;;;14.20;56.60;;;;;;5049684;28;82821;-49
2022/05/02 01:14:34;;;;;;;;;;;14.20;56.70;;;;;;5049852;28;84824;-49
2022/05/02 01:17:00;;;;;;;;;;;14.20;56.60;;;;;;5050091;28;81936;-48
2022/05/02 01:19:26;;;;;;;;;;;14.20;56.70;;;;;;5050191;28;82985;-49
2022/05/02 01:21:52;;;;;;;;;;;14.20;56.70;;;;;;5049964;28;82554;-48
2022/05/02 01:24:17;;;;;;;;;;;14.20;56.70;;;;;;5050228;28;81916;-48
2022/05/02 01:26:43;;;;;;;;;;;14.20;56.60;;;;;;5050030;28;82870;-49
2022/05/02 01:29:09;;;;;;;;;;;14.20;56.80;;;;;;5050210;28;82936;-48
2022/05/02 01:31:34;;;;;;;;;;;14.10;56.80;;;;;;5052735;28;81781;-49
2022/05/02 01:34:00;;;;;;;;;;;14.10;56.80;;;;;;5049624;28;83428;-49
2022/05/02 01:36:26;;;;;;;;;;;14.10;56.80;;;;;;5049241;28;82947;-50
2022/05/02 01:38:52;;;;;;;;;;;14.10;56.80;;;;;;5049840;28;83592;-48
2022/05/02 01:41:18;;;;;;;;;;;14.10;56.80;;;;;;5049770;28;82500;-48
2022/05/02 01:43:43;;;;;;;;;;;14.10;56.80;;;;;;5049055;28;82042;-48
2022/05/02 01:46:11;;;;;;;;;;;14.10;56.80;;;;;;5049659;28;83037;-49
2022/05/02 01:48:36;;;;;;;;;;;14.10;56.90;;;;;;5049765;28;82229;-49
2022/05/02 01:51:02;;;;;;;;;;;14.00;56.80;;;;;;5049896;28;81869;-48
2022/05/02 01:53:28;;;;;;;;;;;14.10;56.80;;;;;;5052030;28;81900;-49
2022/05/02 01:55:53;;;;;;;;;;;14.00;56.90;;;;;;5049902;28;81800;-49
2022/05/02 01:58:19;;;;;;;;;;;14.00;57.00;;;;;;5049496;28;83286;-49
2022/05/02 02:00:45;;;;;;;;;;;14.00;57.00;;;;;;5048709;28;84449;-48
2022/05/02 02:03:11;;;;;;;;;;;14.00;57.00;;;;;;5049436;28;81948;-49
2022/05/02 02:05:49;;;;;;;;;;;14.00;57.00;;;;;;5049386;28;82033;-49
2022/05/02 02:08:15;;;;;;;;;;;14.00;57.00;;;;;;5049574;28;83066;-49
2022/05/02 02:10:41;;;;;;;;;;;14.00;57.00;;;;;;5049343;28;81793;-49
2022/05/02 02:13:06;;;;;;;;;;;14.00;57.10;;;;;;5049690;28;81926;-49
2022/05/02 02:15:32;;;;;;;;;;;13.90;57.10;;;;;;5051880;28;82648;-49
2022/05/02 02:17:57;;;;;;;;;;;13.90;57.10;;;;;;5049787;28;82959;-48
2022/05/02 02:20:23;;;;;;;;;;;13.90;57.10;;;;;;5049450;28;81804;-49
2022/05/02 02:22:49;;;;;;;;;;;13.90;57.10;;;;;;5049592;28;81827;-50
2022/05/02 02:25:14;;;;;;;;;;;13.90;57.10;;;;;;5048505;28;82930;-49
2022/05/02 02:27:40;;;;;;;;;;;13.90;57.10;;;;;;5049044;28;83608;-48
2022/05/02 02:30:06;;;;;;;;;;;13.90;57.20;;;;;;5049160;28;81773;-48
2022/05/02 02:32:32;;;;;;;;;;;13.90;57.10;;;;;;5049070;28;82735;-49
2022/05/02 02:34:58;;;;;;;;;;;13.90;57.20;;;;;;5049003;28;83536;-49
2022/05/02 02:37:24;;;;;;;;;;;13.80;57.20;;;;;;5051805;28;81768;-48
2022/05/02 02:39:50;;;;;;;;;;;13.80;57.20;;;;;;5048896;28;82683;-48
2022/05/02 02:42:16;;;;;;;;;;;13.80;57.30;;;;;;5049602;28;81116;-48
2022/05/02 02:44:42;;;;;;;;;;;13.80;57.30;;;;;;5048606;28;82150;-48
2022/05/02 02:47:08;;;;;;;;;;;13.80;57.30;;;;;;5048770;28;83708;-48
2022/05/02 02:49:33;;;;;;;;;;;13.80;57.30;;;;;;5048709;28;82776;-48
2022/05/02 02:51:59;;;;;;;;;;;13.80;57.60;;;;;;5049900;27;84042;-49
2022/05/02 02:54:25;;;;;;;;;;;13.80;57.40;;;;;;5052145;28;83966;-49
2022/05/02 02:56:50;;;;;;;;;;;13.80;57.40;;;;;;5055021;28;81839;-50
2022/05/02 02:59:16;;;;;;;;;;;13.70;57.40;;;;;;5052355;28;82206;-49
2022/05/02 03:01:41;;;;;;;;;;;13.70;57.30;;;;;;5052282;28;82028;-49
2022/05/02 03:06:53;;;;;;;;;;;13.70;57.50;;;;;;5049509;28;81385;-49
2022/05/02 03:09:18;;;;;;;;;;;13.70;57.40;;;;;;5052080;28;81847;-50
2022/05/02 03:11:44;;;;;;;;;;;13.70;57.50;;;;;;5052354;28;81801;-49
2022/05/02 03:14:10;;;;;;;;;;;13.60;57.50;;;;;;5051204;28;84266;-48
2022/05/02 03:16:36;;;;;;;;;;;13.60;57.40;;;;;;5051924;28;81895;-49
2022/05/02 03:19:01;;;;;;;;;;;13.70;57.50;;;;;;5054830;28;81770;-48
2022/05/02 03:21:27;;;;;;;;;;;13.60;57.50;;;;;;5051975;28;81845;-49
2022/05/02 03:23:52;;;;;;;;;;;13.60;58.10;;;;;;5051954;28;82860;-49
2022/05/02 03:26:18;;;;;;;;;;;13.60;57.50;;;;;;5051586;28;83750;-49
2022/05/02 03:28:44;;;;;;;;;;;13.60;57.50;;;;;;5051831;28;82037;-49
2022/05/02 03:31:10;;;;;;;;;;;13.60;57.40;;;;;;5052510;28;81947;-49
2022/05/02 03:33:35;;;;;;;;;;;13.60;57.40;;;;;;5051598;28;83376;-49
2022/05/02 03:36:01;;;;;;;;;;;13.60;57.50;;;;;;5052017;28;81756;-51
2022/05/02 03:38:26;;;;;;;;;;;13.50;57.50;;;;;;5051183;28;83023;-48
2022/05/02 03:40:52;;;;;;;;;;;13.50;57.50;;;;;;5054156;28;83296;-48
2022/05/02 03:43:18;;;;;;;;;;;13.50;57.50;;;;;;5051938;28;82119;-48
2022/05/02 03:45:43;;;;;;;;;;;13.50;57.50;;;;;;5050611;28;82932;-48
2022/05/02 03:48:09;;;;;;;;;;;13.50;57.60;;;;;;5051809;28;81838;-48
2022/05/02 03:50:34;;;;;;;;;;;13.50;57.60;;;;;;5051536;28;82875;-48
2022/05/02 03:53:00;;;;;;;;;;;13.50;57.50;;;;;;5051552;28;82559;-48
2022/05/02 03:55:26;;;;;;;;;;;13.50;57.60;;;;;;5051927;28;81073;-48
2022/05/02 03:57:51;;;;;;;;;;;13.50;57.50;;;;;;5051552;28;82167;-48
2022/05/02 04:00:17;;;;;;;;;;;13.50;57.60;;;;;;5051126;28;83253;-48
2022/05/02 04:02:43;;;;;;;;;;;13.50;57.60;;;;;;5053508;28;82780;-48
2022/05/02 04:05:09;;;;;;;;;;;13.40;57.60;;;;;;5050953;28;83676;-48
2022/05/02 04:07:35;;;;;;;;;;;13.40;57.50;;;;;;5051087;28;82121;-49
2022/05/02 04:10:01;;;;;;;;;;;13.40;57.50;;;;;;5051526;28;82200;-49
2022/05/02 04:12:33;;;;;;;;;;;13.40;57.60;;;;;;5050959;28;82659;-48
2022/05/02 04:14:59;;;;;;;;;;;13.40;57.50;;;;;;5051161;28;81820;-50
2022/05/02 04:17:24;;;;;;;;;;;13.40;57.60;;;;;;5051028;28;82871;-48
2022/05/02 04:19:50;;;;;;;;;;;13.30;57.50;;;;;;5051343;28;82672;-48
2022/05/02 04:22:16;;;;;;;;;;;13.30;57.50;;;;;;5051314;28;81849;-48
2022/05/02 04:24:41;;;;;;;;;;;13.30;57.60;;;;;;5053821;28;82459;-48
2022/05/02 04:27:07;;;;;;;;;;;13.30;57.60;;;;;;5050704;28;82751;-48
2022/05/02 04:29:35;;;;;;;;;;;13.30;57.60;;;;;;5050969;28;82808;-48
2022/05/02 04:32:00;;;;;;;;;;;13.30;57.60;;;;;;5050730;28;82567;-48
2022/05/02 04:34:26;;;;;;;;;;;13.30;57.70;;;;;;5050860;28;82117;-48
2022/05/02 04:36:52;;;;;;;;;;;13.30;57.60;;;;;;5050853;28;83351;-48
2022/05/02 04:39:17;;;;;;;;;;;13.30;57.70;;;;;;5050529;28;82356;-48
2022/05/02 04:41:43;;;;;;;;;;;13.30;57.70;;;;;;5050890;28;81885;-48
2022/05/02 04:44:09;;;;;;;;;;;13.30;57.70;;;;;;5053579;28;81643;-48
2022/05/02 04:46:34;;;;;;;;;;;13.30;57.70;;;;;;5050588;28;82179;-48
2022/05/02 04:49:00;;;;;;;;;;;13.30;57.70;;;;;;5050604;28;82942;-48
2022/05/02 04:51:27;;;;;;;;;;;13.20;57.70;;;;;;5049809;28;84361;-48
2022/05/02 04:53:53;;;;;;;;;;;13.30;57.70;;;;;;5050480;28;81832;-48
2022/05/02 04:56:18;;;;;;;;;;;13.20;57.70;;;;;;5050573;28;83020;-48
2022/05/02 04:58:44;;;;;;;;;;;13.20;57.80;;;;;;5050162;28;82479;-47
2022/05/02 05:01:10;;;;;;;;;;;13.30;57.80;;;;;;5050459;28;82118;-48
2022/05/02 05:03:36;;;;;;;;;;;13.20;57.80;;;;;;5050477;28;82359;-47
2022/05/02 05:06:02;;;;;;;;;;;13.20;57.70;;;;;;5052767;28;83349;-48
2022/05/02 05:08:28;;;;;;;;;;;13.20;57.80;;;;;;5050837;28;83175;-48
2022/05/02 05:11:04;;;;;;;;;;;13.20;57.90;;;;;;5050032;28;83531;-48
2022/05/02 05:13:36;;;;;;;;;;;13.20;57.90;;;;;;5050315;28;81725;-47
2022/05/02 05:16:25;;;;;;;;;;;13.20;57.90;;;;;;5049090;28;83399;-48
2022/05/02 05:19:02;;;;;;;;;;;13.20;57.90;;;;;;5049606;28;82272;-48
2022/05/02 05:21:44;;;;;;;;;;;13.20;57.90;;;;;;5049766;28;81854;-48
2022/05/02 05:24:28;;;;;;;;;;;13.20;58.00;;;;;;5049416;28;82060;-47
2022/05/02 05:26:53;;;;;;;;;;;13.20;57.90;;;;;;5049539;28;82791;-48
2022/05/02 05:29:34;;;;;;;;;;;13.20;58.00;;;;;;5052081;28;81906;-48
2022/05/02 05:32:18;;;;;;;;;;;13.20;58.10;;;;;;5049176;28;83594;-48
2022/05/02 05:34:48;;;;;;;;;;;13.20;58.00;;;;;;5049907;28;81169;-48
2022/05/02 05:37:32;;;;;;;;;;;13.30;58.70;;;;;;5049172;28;82348;-48
2022/05/02 05:40:17;;;;;;;;;;;13.20;58.10;;;;;;5049180;28;82276;-48
2022/05/02 05:43:01;;;;;;;;;;;13.20;58.10;;;;;;5048464;28;82693;-48
2022/05/02 05:45:26;;;;;;;;;;;13.20;58.10;;;;;;5048776;28;83760;-47
2022/05/02 05:47:52;;;;;;;;;;;13.20;58.20;;;;;;5049155;28;82372;-47
2022/05/02 05:50:28;;;;;;;;;;;13.20;58.40;;;;;;5048945;28;81926;-47
2022/05/02 05:52:56;;;;;;;;;;;13.20;58.30;;;;;;5051902;28;81838;-49
2022/05/02 05:55:27;;;;;;;;;;;13.20;58.30;;;;;;5049193;28;81937;-49
2022/05/02 05:57:59;;;;;;;;;;;13.20;58.30;;;;;;5049138;28;83177;-48
2022/05/02 06:00:25;;;;;;;;;;;13.20;58.40;;;;;;5049246;28;82710;-48
2022/05/02 06:03:11;;;;;;;;;;;13.20;58.40;;;;;;5049350;28;82125;-50
2022/05/02 06:05:43;;;;;;;;;;;13.20;58.40;;;;;;5048956;28;82318;-48
2022/05/02 06:08:19;;;;;;;;;;;13.30;58.30;;;;;;5048043;28;84211;-49
2022/05/02 06:10:45;;;;;;;;;;;13.30;58.40;;;;;;5048818;28;81933;-48
2022/05/02 06:13:14;;;;;;;;;;;13.30;58.30;;;;;;5049145;28;81919;-50
2022/05/02 06:18:30;;;;;;;;;;;13.30;58.40;;;;;;5046077;28;81808;-49
2022/05/02 06:21:01;;;;;;;;;;;13.30;58.40;;;;;;5048360;28;82868;-48
2022/05/02 06:23:29;;;;;;;;;;;13.30;58.40;;;;;;5049015;28;81890;-48
2022/05/02 06:25:56;;;;;;;;;;;13.30;58.30;;;;;;5049116;28;82931;-49
2022/05/02 06:28:25;;;;;;;;;;;13.30;58.30;;;;;;5051557;28;83278;-48
2022/05/02 06:30:51;;;;;;;;;;;13.30;58.30;;;;;;5052268;28;81836;-48
2022/05/02 06:33:19;;;;;;;;;;;13.30;58.40;;;;;;5051933;28;82851;-49
2022/05/02 06:35:50;;;;;;;;;;;13.30;58.40;;;;;;5052130;28;83575;-48
2022/05/02 06:38:25;;;;;;;;;;;13.30;58.50;;;;;;5054999;28;81843;-48
2022/05/02 06:41:17;;;;;;;;;;;13.30;58.40;;;;;;5051988;28;83098;-48
2022/05/02 06:43:51;;;;;;;;;;;13.40;58.40;;;;;;5019708;28;82274;-49
2022/05/02 06:46:18;;;;;;;;;;;13.40;58.40;;;;;;5051680;28;82036;-48
2022/05/02 06:48:55;;;;;;;;;;;13.40;58.40;;;;;;5051987;28;81876;-49
2022/05/02 06:51:22;;;;;;;;;;;13.40;58.20;;;;;;5052887;28;81380;-48
2022/05/02 06:54:06;;;;;;;;;;;13.40;58.30;;;;;;5052332;28;82039;-48
2022/05/02 06:56:43;;;;;;;;;;;13.40;58.30;;;;;;5051949;28;83001;-49
2022/05/02 06:59:24;;;;;;;;;;;13.40;58.30;;;;;;5053957;28;83266;-48
2022/05/02 07:01:53;;;;;;;;;;;13.40;58.30;;;;;;5051562;28;83389;-48
2022/05/02 07:04:19;;;;;;;;;;;13.40;58.20;;;;;;5052029;28;81825;-48
2022/05/02 07:07:04;;;;;;;;;;;13.40;58.30;;;;;;5051588;28;82971;-51
2022/05/02 07:09:55;;;;;;;;;;;13.40;58.20;;;;;;5051406;28;83337;-48
2022/05/02 07:12:24;;;;;;;;;;;13.40;58.30;;;;;;5047594;28;81809;-48
2022/05/02 07:15:04;;;;;;;;;;;13.50;58.40;;;;;;5051847;28;81987;-48
2022/05/02 07:17:41;;;;;;;;;;;13.40;58.30;;;;;;5051902;28;82629;-51
2022/05/02 07:20:08;;;;;;;;;;;13.40;58.30;;;;;;5051820;28;82071;-48
2022/05/02 07:22:36;;;;;;;;;;;13.50;58.40;;;;;;5054066;28;82448;-48
2022/05/02 07:25:13;;;;;;;;;;;13.40;58.30;;;;;;5050841;28;82770;-48
2022/05/02 07:27:42;;;;;;;;;;;13.40;58.20;;;;;;5051286;28;82934;-49
2022/05/02 07:30:08;;;;;;;;;;;13.50;58.20;;;;;;5051072;28;82638;-49
2022/05/02 07:32:34;;;;;;;;;;;13.40;58.20;;;;;;5048205;28;81830;-48
2022/05/02 07:35:01;;;;;;;;;;;13.40;58.30;;;;;;5051380;28;81839;-48
2022/05/02 07:37:29;;;;;;;;;;;13.50;58.20;;;;;;5050637;27;83384;-50
2022/05/02 07:39:56;;;;;;;;;;;13.50;58.20;;;;;;5051486;28;81892;-49
2022/05/02 07:42:24;;;;;;;;;;;13.40;58.20;;;;;;5051599;28;82278;-48
2022/05/02 07:44:51;;;;;;;;;;;13.50;58.40;;;;;;5052886;28;83599;-49
2022/05/02 07:47:17;;;;;;;;;;;13.50;58.20;;;;;;5050852;28;82992;-49
2022/05/02 07:49:46;;;;;;;;;;;13.50;58.10;;;;;;5050042;28;83428;-50
2022/05/02 07:52:13;;;;;;;;;;;13.50;58.30;;;;;;5051174;28;81902;-49
2022/05/02 07:54:40;;;;;;;;;;;13.50;58.30;;;;;;5051157;28;82017;-48
2022/05/02 07:57:07;;;;;;;;;;;13.50;58.00;;;;;;5050566;28;82481;-49
2022/05/02 07:59:37;;;;;;;;;;;13.60;58.10;;;;;;5050997;28;81865;-48
2022/05/02 08:02:02;;;;;;;;;;;13.60;58.60;;;;;;5050800;28;81813;-49
2022/05/02 08:04:28;;;;;;;;;;;13.60;58.00;;;;;;5050818;28;82334;-49
2022/05/02 08:06:54;;;;;;;;;;;13.60;58.00;;;;;;5053700;28;81125;-49
2022/05/02 08:09:38;;;;;;;;;;;13.60;57.90;;;;;;5050696;28;82558;-50
2022/05/02 08:12:07;;;;;;;;;;;13.60;58.00;;;;;;5050792;28;82074;-48
2022/05/02 08:14:42;;;;;;;;;;;13.60;57.80;;;;;;5049988;28;82803;-49
2022/05/02 08:17:14;;;;;;;;;;;13.60;57.80;;;;;;5050437;28;82621;-50
2022/05/02 08:19:59;;;;;;;;;;;13.60;57.80;;;;;;5050658;28;81851;-48
2022/05/02 08:28:08;;;;;;;;;;;13.60;57.50;;;;;;5047483;28;81884;-48
2022/05/02 08:30:56;;;;;;;;;;;13.60;57.40;;;;;;5052828;28;82072;-48
2022/05/02 08:33:25;;;;;;;;;;;13.60;57.40;;;;;;5050540;28;81266;-49
2022/05/02 08:35:57;;;;;;;;;;;13.70;57.80;;;;;;5050347;28;82358;-49
2022/05/02 08:38:49;;;;;;;;;;;13.60;57.30;;;;;;5050268;28;82435;-49
2022/05/02 08:41:36;;;;;;;;;;;13.60;57.40;;;;;;5045139;28;82952;-52
2022/05/02 08:44:04;;;;;;;;;;;13.70;57.50;;;;;;5049991;28;83049;-48
2022/05/02 08:46:48;;;;;;;;;;;13.70;57.60;;;;;;5049784;28;83584;-49
2022/05/02 08:49:38;;;;;;;;;;;13.70;57.60;;;;;;5048924;28;81764;-49
2022/05/02 08:52:07;;;;;;;;;;;13.70;57.50;;;;;;5050030;28;83010;-50
2022/05/02 08:54:51;;;;;;;;;;;13.70;57.50;;;;;;5052566;28;81975;-48
2022/05/02 08:57:16;;;;;;;;;;;13.70;57.50;;;;;;5050127;28;81838;-49
2022/05/02 08:59:48;;;;;;;;;;;13.70;57.40;;;;;;5050262;28;82119;-49
2022/05/02 09:02:13;;;;;;;;;;;13.70;57.50;;;;;;5049943;28;81977;-47
2022/05/02 09:04:42;;;;;;;;;;;13.70;57.50;;;;;;5049817;28;83208;-48
2022/05/02 09:07:26;;;;;;;;;;;13.80;57.50;;;;;;5049086;28;84180;-48
2022/05/02 09:10:07;;;;;;;;;;;13.70;57.20;;;;;;5049729;28;81863;-52
2022/05/02 09:12:36;;;;;;;;;;;13.80;57.30;;;;;;5050026;28;82219;-48
2022/05/02 09:15:12;;;;;;;;;;;13.70;57.00;;;;;;5052911;28;83350;-48
2022/05/02 09:17:47;;;;;;;;;;;13.80;56.40;;;;;;5050367;28;81825;-48
2022/05/02 09:20:12;;;;;;;;;;;13.80;56.60;;;;;;5049926;28;83392;-49
2022/05/02 09:22:57;;;;;;;;;;;13.80;56.60;;;;;;5050392;28;81779;-51
2022/05/02 09:25:34;;;;;;;;;;;13.80;57.00;;;;;;5050576;28;81893;-48
2022/05/02 09:28:00;;;;;;;;;;;13.90;56.70;;;;;;5049748;28;83029;-50
2022/05/02 09:30:29;;;;;;;;;;;13.90;57.00;;;;;;5049776;28;81886;-50
2022/05/02 09:33:00;;;;;;;;;;;13.90;57.00;;;;;;5049214;28;82752;-49
2022/05/02 09:35:33;;;;;;;;;;;13.90;56.90;;;;;;5049306;28;82657;-48
2022/05/02 09:38:22;;;;;;;;;;;13.90;57.00;;;;;;5052175;28;81904;-50
2022/05/02 09:40:48;;;;;;;;;;;14.00;57.00;;;;;;5049325;28;83559;-51
2022/05/02 09:43:22;;;;;;;;;;;14.00;57.00;;;;;;5049743;28;81851;-48
2022/05/02 09:51:33;;;;;;;;;;;14.00;57.00;;;;;;5047049;28;81107;-51
2022/05/02 09:53:59;;;;;;;;;;;14.00;57.10;;;;;;5031696;28;82385;-51
2022/05/02 09:56:39;;;;;;;;;;;14.00;57.20;;;;;;5031016;28;83801;-49
2022/05/02 09:59:06;;;;;;;;;;;14.10;57.30;;;;;;5048893;28;82752;-49
2022/05/02 10:01:33;;;;;;;;;;;14.00;57.20;;;;;;5054446;27;82717;-53
2022/05/02 10:04:18;;;;;;;;;;;14.10;57.30;;;;;;5053284;28;81847;-53
2022/05/02 10:06:51;;;;;;;;;;;14.10;57.30;;;;;;5052630;28;82797;-51
2022/05/02 10:09:21;;;;;;;;;;;14.10;57.30;;;;;;5052500;28;83421;-51
2022/05/02 10:11:50;;;;;;;;;;;14.10;57.30;;;;;;5053007;28;82013;-50
2022/05/02 10:14:45;;;;;;;;;;;14.10;57.30;;;;;;5052941;28;83328;-49
2022/05/02 10:17:13;;;;;;;;;;;14.10;57.30;;;;;;4980663;28;81928;-50
2022/05/02 10:19:42;;;;;;;;;;;14.10;57.30;;;;;;5052950;28;82272;-50
2022/05/02 10:22:26;;;;;;;;;;;14.20;57.30;;;;;;5052706;28;82211;-49
2022/05/02 10:25:11;;;;;;;;;;;14.20;57.30;;;;;;5054639;28;83145;-49
2022/05/02 10:27:55;;;;;;;;;;;14.20;57.30;;;;;;5052465;28;83994;-50
2022/05/02 10:30:21;;;;;;;;;;;14.20;57.30;;;;;;5052451;28;82448;-49
2022/05/02 10:32:50;;;;;;;;;;;14.20;57.20;;;;;;5052518;28;81906;-51
2022/05/02 10:35:17;;;;;;;;;;;14.30;57.10;;;;;;5052533;28;82809;-50
2022/05/02 10:37:53;;;;;;;;;;;14.30;56.60;;;;;;5052054;28;82694;-49
2022/05/02 10:40:23;;;;;;;;;;;14.30;56.70;;;;;;5052648;28;81867;-51
2022/05/02 10:42:55;;;;;;;;;;;14.40;56.80;;;;;;5052889;28;83038;-52
2022/05/02 10:45:24;;;;;;;;;;;14.30;56.50;;;;;;5051857;28;81900;-50
2022/05/02 10:47:54;;;;;;;;;;;14.40;56.70;;;;;;5055458;28;81889;-49
2022/05/02 10:50:19;;;;;;;;;;;14.40;56.00;;;;;;5051581;28;84518;-52
2022/05/02 10:52:49;;;;;;;;;;;14.40;56.00;;;;;;5052474;28;81769;-50
2022/05/02 10:55:25;;;;;;;;;;;14.40;54.20;;;;;;5052112;28;82981;-49
2022/05/02 10:57:54;;;;;;;;;;;14.40;55.80;;;;;;5052403;28;83469;-51
2022/05/02 11:00:21;;;;;;;;;;;14.50;55.50;;;;;;5052078;28;81870;-50
2022/05/02 11:02:51;;;;;;;;;;;14.50;54.80;;;;;;5052278;28;82976;-52
2022/05/02 11:05:17;;;;;;;;;;;14.50;54.90;;;;;;5052199;28;83940;-49
2022/05/02 11:07:45;;;;;;;;;;;14.50;54.80;;;;;;5052049;28;81249;-49
2022/05/02 11:10:12;;;;;;;;;;;14.60;55.00;;;;;;5054651;28;82240;-53
2022/05/02 11:12:47;;;;;;;;;;;14.60;54.40;;;;;;5051345;27;81849;-50
2022/05/02 11:15:27;;;;;;;;;;;14.60;54.40;;;;;;5051891;28;82952;-52
2022/05/02 11:18:04;;;;;;;;;;;14.60;54.20;;;;;;5051833;28;82616;-52
2022/05/02 11:20:41;;;;;;;;;;;14.60;54.60;;;;;;5051988;28;81822;-51
2022/05/02 11:23:26;;;;;;;;;;;14.60;54.30;;;;;;5051798;28;82420;-51
2022/05/02 11:26:07;;;;;;;;;;;14.60;54.30;;;;;;5051383;28;83524;-50
2022/05/02 11:28:56;;;;;;;;;;;14.70;54.00;;;;;;5051907;28;81845;-51
2022/05/02 11:31:24;;;;;;;;;;;14.70;53.90;;;;;;5054712;28;81836;-51
2022/05/02 11:33:50;;;;;;;;;;;14.70;54.40;;;;;;5052648;28;81173;-51
2022/05/02 11:36:21;;;;;;;;;;;14.70;54.20;;;;;;5052032;28;81825;-49
2022/05/02 11:38:46;;;;;;;;;;;14.70;54.40;;;;;;5051744;28;82468;-52
2022/05/02 11:41:12;;;;;;;;;;;14.70;54.20;;;;;;5051078;28;82851;-50
2022/05/02 11:43:37;;;;;;;;;;;14.70;54.20;;;;;;5051644;28;82034;-49
2022/05/02 11:46:12;;;;;;;;;;;14.80;53.90;;;;;;5051275;28;83410;-47
2022/05/02 11:48:47;;;;;;;;;;;14.80;54.10;;;;;;5051665;28;81983;-48
2022/05/02 11:51:24;;;;;;;;;;;14.80;51.60;;;;;;5051511;28;83060;-48
2022/05/02 11:53:51;;;;;;;;;;;14.70;51.30;;;;;;5054018;28;82739;-48
2022/05/02 11:56:19;;;;;;;;;;;14.80;52.60;;;;;;5051664;28;81777;-48
2022/05/02 11:58:48;;;;;;;;;;;14.80;52.60;;;;;;5051717;28;82803;-49
2022/05/02 12:01:19;;;;;;;;;;;14.80;52.50;;;;;;5051368;28;81820;-47
2022/05/02 12:03:48;;;;;;;;;;;14.80;52.60;;;;;;5051423;28;82878;-47
2022/05/02 12:06:15;;;;;;;;;;;14.80;52.50;;;;;;5050423;28;83565;-47
2022/05/02 12:08:44;;;;;;;;;;;14.80;52.80;;;;;;5033315;28;82123;-47
2022/05/02 12:11:14;;;;;;;;;;;14.80;52.80;;;;;;5051159;28;82300;-51
2022/05/02 12:13:44;;;;;;;;;;;14.80;52.70;;;;;;5051098;28;83720;-47
2022/05/02 12:16:10;;;;;;;;;;;14.80;53.00;;;;;;5054142;28;81831;-47
2022/05/02 12:18:46;;;;;;;;;;;14.80;53.10;;;;;;5050954;28;82659;-47
2022/05/02 12:21:15;;;;;;;;;;;14.90;53.30;;;;;;5051023;28;81955;-48
2022/05/02 12:23:42;;;;;;;;;;;14.90;53.60;;;;;;5051245;27;82336;-47
2022/05/02 12:26:18;;;;;;;;;;;14.90;53.30;;;;;;5049935;28;83766;-47
2022/05/02 12:28:51;;;;;;;;;;;14.90;53.10;;;;;;5051019;28;81844;-50
2022/05/02 12:31:27;;;;;;;;;;;14.90;53.30;;;;;;5050496;28;82877;-48
2022/05/02 12:33:59;;;;;;;;;;;14.90;53.40;;;;;;5050904;28;82431;-50
2022/05/02 12:36:28;;;;;;;;;;;15.00;53.10;;;;;;5050888;28;81951;-48
2022/05/02 12:38:54;;;;;;;;;;;14.90;53.20;;;;;;5053470;28;83105;-49
2022/05/02 12:41:27;;;;;;;;;;;15.00;53.30;;;;;;5050917;28;81827;-48
2022/05/02 12:43:57;;;;;;;;;;;15.00;53.20;;;;;;5050340;28;83437;-50
2022/05/02 12:46:24;;;;;;;;;;;14.90;53.30;;;;;;5050516;28;82631;-48
2022/05/02 12:48:54;;;;;;;;;;;15.00;53.70;;;;;;5051092;28;81122;-49
2022/05/02 12:51:21;;;;;;;;;;;15.00;52.90;;;;;;5050687;28;81803;-48
2022/05/02 13:02:32;;;;;;;;;;;15.00;53.10;;;;;;5050094;28;82530;-52
2022/05/02 13:04:59;;;;;;;;;;;15.00;52.70;;;;;;5050354;28;83143;-48
2022/05/02 13:07:26;;;;;;;;;;;15.00;53.20;;;;;;5050000;28;82816;-48
2022/05/02 13:09:52;;;;;;;;;;;15.00;52.90;;;;;;5049900;28;81848;-48
2022/05/02 13:12:19;;;;;;;;;;;15.00;53.00;;;;;;5050406;28;82993;-49
2022/05/02 13:14:46;;;;;;;;;;;15.00;53.10;;;;;;5050641;28;83082;-48
2022/05/02 13:17:13;;;;;;;;;;;15.00;52.80;;;;;;5050401;28;81883;-49
2022/05/02 13:19:41;;;;;;;;;;;15.00;52.60;;;;;;5050382;28;82186;-48
2022/05/02 13:22:06;;;;;;;;;;;15.10;52.80;;;;;;5049498;28;83516;-48
2022/05/02 13:24:32;;;;;;;;;;;15.00;52.90;;;;;;5052732;28;81819;-49
2022/05/02 13:27:06;;;;;;;;;;;15.00;52.40;;;;;;5049758;28;81825;-49
2022/05/02 13:29:35;;;;;;;;;;;15.00;52.10;;;;;;5049563;28;81854;-49
2022/05/02 13:32:05;;;;;;;;;;;15.00;52.80;;;;;;5049733;28;82880;-51
2022/05/02 13:37:47;;;;;;;;;;;15.00;52.40;;;;;;5047618;28;81727;-48
2022/05/02 13:43:39;;;;;;;;;;;15.00;52.70;;;;;;5047709;28;81686;-48
2022/05/02 13:49:52;;;;;;;;;;;15.00;52.80;;;;;;5049865;28;83157;-48
2022/05/02 13:55:27;;;;;;;;;;;15.10;52.80;;;;;;5047618;28;81692;-48
2022/05/02 14:01:28;;;;;;;;;;;15.10;52.30;;;;;;5047433;28;81678;-48
2022/05/02 14:12:28;;;;;;;;;;;15.10;52.40;;;;;;5050128;28;81736;-48
2022/05/02 14:17:58;;;;;;;;;;;15.10;52.40;;;;;;5046879;28;82641;-49
2022/05/02 14:23:26;;;;;;;;;;;15.10;52.30;;;;;;5047282;28;81819;-48
2022/05/02 14:28:56;;;;;;;;;;;15.10;52.60;;;;;;5046694;28;81983;-48
2022/05/02 14:34:37;;;;;;;;;;;15.10;52.80;;;;;;5046454;28;81663;-48
2022/05/02 14:40:07;;;;;;;;;;;15.10;53.00;;;;;;5046420;28;81694;-48
2022/05/02 14:45:37;;;;;;;;;;;15.10;53.20;;;;;;5032266;28;82865;-48
2022/05/02 14:51:07;;;;;;;;;;;15.10;53.20;;;;;;5049882;28;81995;-48
2022/05/02 14:56:41;;;;;;;;;;;15.10;53.40;;;;;;5049863;28;81682;-48
2022/05/02 15:02:10;;;;;;;;;;;15.20;53.60;;;;;;5052628;28;81627;-49
2022/05/02 15:07:38;;;;;;;;;;;15.20;53.70;;;;;;5050023;28;81783;-49
2022/05/02 15:13:10;;;;;;;;;;;15.20;53.30;;;;;;5048879;28;82706;-50
2022/05/02 15:24:59;;;;;;;;;;;15.20;53.90;;;;;;5049936;28;81572;-48
2022/05/02 15:42:18;;;;;;;;;;;15.20;54.20;;;;;;5049056;28;82694;-48
2022/05/02 15:47:47;;;;;;;;;;;15.20;54.30;;;;;;5033382;28;81956;-47
2022/05/02 15:53:20;;;;;;;;;;;15.20;54.30;;;;;;5049093;28;81679;-48
2022/05/02 15:59:13;;;;;;;;;;;15.20;54.40;;;;;;5048610;28;81596;-48
2022/05/02 16:04:54;;;;;;;;;;;15.20;54.50;;;;;;5048808;28;81871;-47
2022/05/02 16:10:33;;;;;;;;;;;15.20;54.60;;;;;;5048155;28;82613;-47
2022/05/02 16:16:08;;;;;;;;;;;15.20;54.70;;;;;;5051045;28;81998;-47
2022/05/02 16:21:37;;;;;;;;;;;15.20;54.90;;;;;;5048809;28;81857;-50
2022/05/02 16:27:13;;;;;;;;;;;15.20;54.90;;;;;;5048457;28;81587;-49
2022/05/02 16:32:42;;;;;;;;;;;15.20;55.60;;;;;;5048584;28;81718;-47
2022/05/02 16:38:11;;;;;;;;;;;15.20;55.00;;;;;;5047603;28;82958;-51
2022/05/02 16:43:44;;;;;;;;;;;15.20;55.00;;;;;;5048180;28;81955;-50
2022/05/02 16:49:16;;;;;;;;;;;15.20;55.10;;;;;;5033950;28;81894;-48
2022/05/02 16:54:48;;;;;;;;;;;15.20;55.10;;;;;;5048177;28;81741;-48
2022/05/02 17:00:24;;;;;;;;;;;15.20;55.20;;;;;;5047980;28;81982;-48
2022/05/02 17:05:56;;;;;;;;;;;15.20;55.20;;;;;;5049405;28;82615;-48